createdAt,value
2022-11-28T00:01:27.306Z,101159.75
2022-11-28T00:03:53.933Z,101163.84
2022-11-28T00:06:20.927Z,101164.81
2022-11-28T00:08:50.085Z,101167.28
2022-11-28T00:11:18.387Z,101156.66
2022-11-28T00:13:46.273Z,101149.50
2022-11-28T00:16:17.265Z,101156.34
2022-11-28T00:18:44.392Z,101141.31
2022-11-28T00:21:13.669Z,101140.50
2022-11-28T00:23:41.247Z,101140.34
2022-11-28T00:26:32.362Z,101147.22
2022-11-28T00:29:00.261Z,101148.84
2022-11-28T00:31:30.322Z,101138.38
2022-11-28T00:33:58.091Z,101137.44
2022-11-28T00:36:25.611Z,101130.41
2022-11-28T00:38:52.430Z,101127.63
2022-11-28T00:41:30.127Z,101123.19
2022-11-28T00:43:57.820Z,101121.41
2022-11-28T00:46:25.148Z,101124.88
2022-11-28T00:48:52.270Z,101123.06
2022-11-28T00:51:24.116Z,101120.28
2022-11-28T00:56:38.100Z,101114.06
2022-11-28T00:59:05.314Z,101116.69
2022-11-28T01:01:35.200Z,101101.97
2022-11-28T01:04:04.925Z,101098.53
2022-11-28T01:06:41.939Z,101110.50
2022-11-28T01:09:12.307Z,101104.44
2022-11-28T01:11:42.869Z,101100.97
2022-11-28T01:14:11.116Z,101096.44
2022-11-28T01:16:38.923Z,101086.78
2022-11-28T01:19:06.858Z,101087.59
2022-11-28T01:21:34.484Z,101090.06
2022-11-28T01:24:01.248Z,101088.41
2022-11-28T01:26:30.442Z,101094.44
2022-11-28T01:28:58.867Z,101084.66
2022-11-28T01:31:26.980Z,101076.63
2022-11-28T01:33:54.479Z,101078.13
2022-11-28T01:36:22.322Z,101081.56
2022-11-28T01:38:51.297Z,101077.00
2022-11-28T01:41:22.505Z,101082.06
2022-11-28T01:44:15.475Z,101075.72
2022-11-28T01:46:42.090Z,101079.00
2022-11-28T01:49:23.169Z,101072.78
2022-11-28T01:51:56.129Z,101074.44
2022-11-28T01:54:25.569Z,101081.97
2022-11-28T01:56:56.961Z,101080.69
2022-11-28T01:59:27.307Z,101081.34
2022-11-28T02:01:54.117Z,101072.34
2022-11-28T02:04:20.777Z,101062.53
2022-11-28T02:06:47.592Z,101068.44
2022-11-28T02:09:16.755Z,101072.72
2022-11-28T02:12:01.863Z,101064.50
2022-11-28T02:14:53.595Z,101070.41
2022-11-28T02:18:01.090Z,101057.31
2022-11-28T02:20:58.958Z,101055.38
2022-11-28T02:23:47.235Z,101057.00
2022-11-28T02:26:26.494Z,101052.41
2022-11-28T02:28:56.053Z,101056.84
2022-11-28T02:32:00.155Z,101054.09
2022-11-28T02:34:37.592Z,101053.91
2022-11-28T02:37:13.027Z,101052.09
2022-11-28T02:40:07.163Z,101052.91
2022-11-28T02:42:47.757Z,101056.38
2022-11-28T02:45:29.528Z,101060.63
2022-11-28T02:48:10.829Z,101050.16
2022-11-28T02:51:02.276Z,101062.44
2022-11-28T02:53:32.267Z,101051.78
2022-11-28T02:55:59.791Z,101054.41
2022-11-28T02:58:27.158Z,101051.97
2022-11-28T03:00:55.378Z,101055.22
2022-11-28T03:03:22.120Z,101062.28
2022-11-28T03:06:21.040Z,101049.97
2022-11-28T03:09:18.503Z,101048.19
2022-11-28T03:12:17.039Z,101052.59
2022-11-28T03:14:54.881Z,101055.09
2022-11-28T03:17:25.769Z,101050.81
2022-11-28T03:20:04.920Z,101049.84
2022-11-28T03:23:10.313Z,101049.03
2022-11-28T03:25:52.639Z,101054.25
2022-11-28T03:28:19.518Z,101048.19
2022-11-28T03:30:51.218Z,101056.88
2022-11-28T03:33:21.398Z,101050.66
2022-11-28T03:36:02.744Z,101050.81
2022-11-28T03:38:38.226Z,101052.59
2022-11-28T03:41:11.160Z,101056.03
2022-11-28T03:43:43.301Z,101053.28
2022-11-28T03:46:16.104Z,101050.81
2022-11-28T03:48:47.803Z,101052.47
2022-11-28T03:51:28.953Z,101052.47
2022-11-28T03:54:12.364Z,101059.34
2022-11-28T03:57:10.999Z,101058.53
2022-11-28T03:59:41.915Z,101059.34
2022-11-28T04:02:22.194Z,101058.53
2022-11-28T04:04:56.000Z,101053.28
2022-11-28T04:07:41.710Z,101055.09
2022-11-28T04:10:41.023Z,101070.47
2022-11-28T04:13:20.076Z,101061.13
2022-11-28T04:16:00.853Z,101055.91
2022-11-28T04:18:43.155Z,101062.94
2022-11-28T04:21:29.719Z,101058.34
2022-11-28T04:24:03.489Z,101057.53
2022-11-28T04:26:38.211Z,101066.19
2022-11-28T04:29:10.359Z,101060.16
2022-11-28T04:31:43.035Z,101057.69
2022-11-28T04:34:15.804Z,101069.81
2022-11-28T04:36:45.021Z,101068.81
2022-11-28T04:39:19.182Z,101064.41
2022-11-28T04:41:56.827Z,101058.34
2022-11-28T04:44:28.256Z,101059.34
2022-11-28T04:46:57.192Z,101062.78
2022-11-28T04:49:28.406Z,101067.84
2022-11-28T04:52:19.225Z,101064.56
2022-11-28T04:54:55.958Z,101061.94
2022-11-28T04:57:31.261Z,101071.63
2022-11-28T05:00:00.862Z,101068.00
2022-11-28T05:02:29.625Z,101069.81
2022-11-28T05:04:56.624Z,101073.25
2022-11-28T05:07:26.027Z,101064.56
2022-11-28T05:09:52.788Z,101073.25
2022-11-28T05:12:19.338Z,101067.19
2022-11-28T05:14:46.184Z,101077.66
2022-11-28T05:17:15.415Z,101080.28
2022-11-28T05:19:43.380Z,101076.69
2022-11-28T05:22:09.913Z,101083.72
2022-11-28T05:24:36.522Z,101088.97
2022-11-28T05:27:03.278Z,101087.16
2022-11-28T05:29:30.178Z,101087.16
2022-11-28T05:31:56.821Z,101088.16
2022-11-28T05:34:23.572Z,101087.34
2022-11-28T05:36:53.829Z,101096.00
2022-11-28T05:39:20.670Z,101090.78
2022-11-28T05:41:47.595Z,101092.41
2022-11-28T05:44:14.302Z,101096.81
2022-11-28T05:46:41.257Z,101097.81
2022-11-28T05:49:08.842Z,101097.63
2022-11-28T05:51:35.568Z,101096.00
2022-11-28T05:54:02.184Z,101090.78
2022-11-28T05:56:28.723Z,101091.59
2022-11-28T05:58:55.340Z,101094.03
2022-11-28T06:01:28.045Z,101091.41
2022-11-28T06:04:00.273Z,101090.59
2022-11-28T06:06:29.632Z,101095.84
2022-11-28T06:08:57.027Z,101098.47
2022-11-28T06:11:25.111Z,101102.75
2022-11-28T06:13:52.402Z,101101.06
2022-11-28T06:16:22.737Z,101103.69
2022-11-28T06:18:55.571Z,101102.88
2022-11-28T06:21:23.212Z,101096.66
2022-11-28T06:23:50.020Z,101104.50
2022-11-28T06:26:20.023Z,101108.78
2022-11-28T06:28:49.151Z,101103.56
2022-11-28T06:31:21.328Z,101100.13
2022-11-28T06:33:48.344Z,101104.38
2022-11-28T06:36:16.594Z,101107.00
2022-11-28T06:38:44.134Z,101108.63
2022-11-28T06:41:14.575Z,101111.91
2022-11-28T06:43:41.730Z,101113.72
2022-11-28T06:46:21.926Z,101121.59
2022-11-28T06:48:50.606Z,101119.78
2022-11-28T06:51:17.790Z,101115.34
2022-11-28T06:53:44.765Z,101122.22
2022-11-28T06:56:17.741Z,101120.41
2022-11-28T06:58:45.158Z,101123.84
2022-11-28T07:01:13.615Z,101132.69
2022-11-28T07:03:40.549Z,101131.72
2022-11-28T07:06:08.299Z,101129.09
2022-11-28T07:08:35.133Z,101131.72
2022-11-28T07:11:29.556Z,101136.97
2022-11-28T07:13:57.567Z,101136.00
2022-11-28T07:16:30.070Z,101136.00
2022-11-28T07:18:58.280Z,101136.00
2022-11-28T07:21:25.784Z,101142.06
2022-11-28T07:23:53.427Z,101131.56
2022-11-28T07:26:21.809Z,101137.63
2022-11-28T07:28:49.594Z,101141.06
2022-11-28T07:31:20.027Z,101138.31
2022-11-28T07:33:49.128Z,101144.50
2022-11-28T07:36:23.591Z,101145.19
2022-11-28T07:38:52.791Z,101146.81
2022-11-28T07:41:24.933Z,101149.44
2022-11-28T07:43:58.411Z,101157.28
2022-11-28T07:46:26.148Z,101159.91
2022-11-28T07:48:52.913Z,101159.75
2022-11-28T07:51:22.644Z,101158.78
2022-11-28T07:53:49.874Z,101160.41
2022-11-28T07:56:20.743Z,101157.81
2022-11-28T07:58:48.269Z,101160.25
2022-11-28T08:01:20.346Z,101159.44
2022-11-28T08:03:47.322Z,101161.91
2022-11-28T08:06:16.779Z,101169.59
2022-11-28T08:08:44.306Z,101163.38
2022-11-28T08:11:11.393Z,101170.28
2022-11-28T08:13:38.778Z,101171.09
2022-11-28T08:16:09.530Z,101168.31
2022-11-28T08:18:36.501Z,101163.06
2022-11-28T08:21:08.761Z,101163.75
2022-11-28T08:23:36.419Z,101159.31
2022-11-28T08:26:04.622Z,101168.81
2022-11-28T08:28:31.745Z,101173.91
2022-11-28T08:30:59.685Z,101175.53
2022-11-28T08:33:26.608Z,101178.00
2022-11-28T08:35:53.246Z,101177.03
2022-11-28T08:38:19.789Z,101180.47
2022-11-28T08:40:46.570Z,101187.16
2022-11-28T08:43:13.247Z,101188.03
2022-11-28T08:45:39.968Z,101187.84
2022-11-28T08:48:07.003Z,101185.91
2022-11-28T08:50:33.546Z,101193.59
2022-11-28T08:53:07.830Z,101189.84
2022-11-28T08:55:39.142Z,101194.09
2022-11-28T08:58:08.565Z,101185.91
2022-11-28T09:00:35.214Z,101185.75
2022-11-28T09:03:01.959Z,101182.13
2022-11-28T09:05:29.552Z,101187.25
2022-11-28T09:07:57.006Z,101196.59
2022-11-28T09:10:24.978Z,101196.41
2022-11-28T09:12:52.470Z,101194.63
2022-11-28T09:15:19.330Z,101196.91
2022-11-28T09:17:46.694Z,101197.41
2022-11-28T09:20:13.661Z,101195.47
2022-11-28T09:22:40.863Z,101201.34
2022-11-28T09:25:08.294Z,101202.03
2022-11-28T09:27:34.877Z,101197.44
2022-11-28T09:30:01.456Z,101202.53
2022-11-28T09:32:28.079Z,101192.69
2022-11-28T09:34:55.541Z,101204.00
2022-11-28T09:37:23.107Z,101207.28
2022-11-28T09:40:12.179Z,101201.72
2022-11-28T09:42:44.524Z,101206.47
2022-11-28T09:45:24.082Z,101208.94
2022-11-28T09:47:54.894Z,101203.53
2022-11-28T09:50:25.332Z,101206.81
2022-11-28T09:53:02.555Z,101213.53
2022-11-28T09:55:36.767Z,101208.78
2022-11-28T09:58:17.280Z,101207.66
2022-11-28T10:00:57.497Z,101207.28
2022-11-28T10:03:43.836Z,101207.78
2022-11-28T10:06:24.207Z,101209.28
2022-11-28T10:08:51.648Z,101203.22
2022-11-28T10:11:42.855Z,101204.22
2022-11-28T10:14:43.363Z,101216.34
2022-11-28T10:17:19.300Z,101216.34
2022-11-28T10:20:01.424Z,101225.03
2022-11-28T10:22:38.172Z,101216.84
2022-11-28T10:25:31.469Z,101207.00
2022-11-28T10:27:58.168Z,101218.97
2022-11-28T10:30:30.228Z,101213.72
2022-11-28T10:33:14.153Z,101216.19
2022-11-28T10:36:02.063Z,101213.41
2022-11-28T10:38:34.023Z,101220.31
2022-11-28T10:41:15.886Z,101215.06
2022-11-28T10:44:00.580Z,101213.91
2022-11-28T10:46:56.422Z,101211.97
2022-11-28T10:49:57.818Z,101221.97
2022-11-28T10:52:37.222Z,101218.50
2022-11-28T10:55:57.451Z,101218.34
2022-11-28T10:58:31.801Z,101225.22
2022-11-28T11:01:02.297Z,101221.63
2022-11-28T11:03:31.962Z,101218.19
2022-11-28T11:06:00.501Z,101213.75
2022-11-28T11:08:30.100Z,101214.41
2022-11-28T11:11:18.294Z,101212.44
2022-11-28T11:14:05.727Z,101212.94
2022-11-28T11:16:52.911Z,101213.41
2022-11-28T11:19:35.108Z,101214.25
2022-11-28T11:22:20.498Z,101219.16
2022-11-28T11:25:16.448Z,101216.22
2022-11-28T11:27:51.711Z,101215.03
2022-11-28T11:30:22.906Z,101215.84
2022-11-28T11:32:51.567Z,101229.78
2022-11-28T11:35:26.147Z,101228.97
2022-11-28T11:37:53.244Z,101229.78
2022-11-28T11:40:28.116Z,101228.03
2022-11-28T11:42:58.192Z,101225.22
2022-11-28T11:45:33.380Z,101227.84
2022-11-28T11:48:01.023Z,101226.69
2022-11-28T11:50:30.832Z,101222.09
2022-11-28T11:53:10.474Z,101221.94
2022-11-28T11:56:01.360Z,101226.19
2022-11-28T11:58:51.579Z,101238.31
2022-11-28T12:01:20.844Z,101244.56
2022-11-28T12:03:54.103Z,101228.63
2022-11-28T12:06:26.702Z,101231.75
2022-11-28T12:09:00.798Z,101232.25
2022-11-28T12:11:46.550Z,101232.72
2022-11-28T12:14:34.497Z,101233.06
2022-11-28T12:20:27.727Z,101226.31
2022-11-28T12:26:10.347Z,101237.16
2022-11-28T12:29:32.027Z,101242.41
2022-11-28T12:32:14.037Z,101233.84
2022-11-28T12:34:59.622Z,101239.59
2022-11-28T12:38:09.850Z,101239.59
2022-11-28T12:40:55.477Z,101241.91
2022-11-28T12:43:34.475Z,101231.53
2022-11-28T12:46:23.155Z,101239.41
2022-11-28T12:49:15.207Z,101231.72
2022-11-28T12:51:44.371Z,101224.66
2022-11-28T12:54:19.931Z,101234.00
2022-11-28T12:56:55.710Z,101234.66
2022-11-28T12:59:47.713Z,101230.88
2022-11-28T13:02:14.345Z,101228.09
2022-11-28T13:05:03.411Z,101233.97
2022-11-28T13:07:48.911Z,101227.91
2022-11-28T13:10:22.780Z,101224.47
2022-11-28T13:12:59.293Z,101229.72
2022-11-28T13:15:25.896Z,101233.34
2022-11-28T13:18:02.206Z,101235.31
2022-11-28T13:20:39.027Z,101238.75
2022-11-28T13:23:28.964Z,101249.44
2022-11-28T13:26:11.205Z,101239.75
2022-11-28T13:28:57.425Z,101237.13
2022-11-28T13:31:34.629Z,101245.63
2022-11-28T13:34:01.917Z,101240.56
2022-11-28T13:39:27.956Z,101247.13
2022-11-28T13:42:28.454Z,101250.41
2022-11-28T13:44:56.372Z,101246.78
2022-11-28T13:47:22.862Z,101253.84
2022-11-28T13:49:49.757Z,101262.72
2022-11-28T13:52:19.303Z,101257.44
2022-11-28T13:54:52.979Z,101265.34
2022-11-28T13:57:29.753Z,101271.59
2022-11-28T14:00:07.725Z,101268.34
2022-11-28T14:02:41.895Z,101262.25
2022-11-28T14:05:26.108Z,101267.50
2022-11-28T14:07:55.972Z,101270.97
2022-11-28T14:10:28.624Z,101275.41
2022-11-28T14:12:55.171Z,101279.66
2022-11-28T14:15:35.637Z,101282.28
2022-11-28T14:18:54.348Z,101294.63
2022-11-28T14:21:28.284Z,101291.16
2022-11-28T14:24:10.245Z,101286.88
2022-11-28T14:26:41.042Z,101290.19
2022-11-28T14:29:22.692Z,101289.34
2022-11-28T14:32:13.853Z,101298.06
2022-11-28T14:34:43.337Z,101300.69
2022-11-28T14:37:19.409Z,101296.25
2022-11-28T14:39:50.300Z,101301.69
2022-11-28T14:45:43.194Z,101295.25
2022-11-28T14:48:40.061Z,101300.50
2022-11-28T14:51:06.651Z,101305.75
2022-11-28T14:53:38.796Z,101293.44
2022-11-28T14:56:26.633Z,101300.50
2022-11-28T14:58:57.951Z,101307.56
2022-11-28T15:01:36.034Z,101291.97
2022-11-28T15:04:40.527Z,101302.66
2022-11-28T15:07:22.243Z,101304.47
2022-11-28T15:10:07.445Z,101293.13
2022-11-28T15:12:53.350Z,101306.28
2022-11-28T15:15:20.891Z,101305.47
2022-11-28T15:17:51.514Z,101310.72
2022-11-28T15:20:26.341Z,101310.84
2022-11-28T15:22:53.055Z,101317.13
2022-11-28T15:25:26.161Z,101322.22
2022-11-28T15:27:53.773Z,101320.75
2022-11-28T15:30:27.493Z,101315.47
2022-11-28T15:33:00.272Z,101327.63
2022-11-28T15:35:29.822Z,101318.25
2022-11-28T15:37:58.347Z,101322.69
2022-11-28T15:40:33.959Z,101316.94
2022-11-28T15:43:08.101Z,101324.84
2022-11-28T15:45:42.612Z,101333.72
2022-11-28T15:48:40.354Z,101333.06
2022-11-28T15:51:08.142Z,101335.03
2022-11-28T15:53:42.474Z,101340.28
2022-11-28T15:56:15.271Z,101346.38
2022-11-28T15:58:44.093Z,101351.47
2022-11-28T16:04:17.717Z,101348.16
2022-11-28T16:06:52.176Z,101348.16
2022-11-28T16:09:18.710Z,101352.59
2022-11-28T16:11:48.064Z,101351.78
2022-11-28T16:14:20.585Z,101352.75
2022-11-28T16:16:47.493Z,101352.94
2022-11-28T16:19:35.165Z,101357.50
2022-11-28T16:22:16.973Z,101367.38
2022-11-28T16:24:57.453Z,101371.97
2022-11-28T16:27:37.658Z,101384.16
2022-11-28T16:30:30.631Z,101382.34
2022-11-28T16:32:57.954Z,101379.84
2022-11-28T16:35:29.711Z,101374.44
2022-11-28T16:38:18.904Z,101383.16
2022-11-28T16:40:45.848Z,101381.34
2022-11-28T16:43:37.698Z,101386.59
2022-11-28T16:46:06.767Z,101381.53
2022-11-28T16:48:38.718Z,101389.03
2022-11-28T16:51:11.972Z,101390.84
2022-11-28T16:53:41.399Z,101387.41
2022-11-28T16:56:22.991Z,101395.28
2022-11-28T16:58:53.750Z,101397.94
2022-11-28T17:01:21.886Z,101398.75
2022-11-28T17:03:51.225Z,101394.47
2022-11-28T17:06:33.983Z,101392.66
2022-11-28T17:09:01.818Z,101402.19
2022-11-28T17:11:31.812Z,101405.81
2022-11-28T17:14:02.275Z,101408.44
2022-11-28T17:16:33.364Z,101411.06
2022-11-28T17:19:00.252Z,101418.94
2022-11-28T17:21:35.750Z,101418.44
2022-11-28T17:24:02.842Z,101423.88
2022-11-28T17:26:29.776Z,101426.66
2022-11-28T17:28:58.523Z,101422.88
2022-11-28T17:31:25.470Z,101426.00
2022-11-28T17:33:52.242Z,101422.38
2022-11-28T17:36:18.698Z,101421.19
2022-11-28T17:38:45.655Z,101428.75
2022-11-28T17:41:14.473Z,101425.94
2022-11-28T17:43:41.799Z,101423.94
2022-11-28T17:46:08.843Z,101423.44
2022-11-28T17:48:38.855Z,101428.34
2022-11-28T17:51:07.046Z,101429.63
2022-11-28T17:53:33.574Z,101436.16
2022-11-28T17:56:00.637Z,101446.97
2022-11-28T17:58:27.607Z,101450.72
2022-11-28T18:01:00.279Z,101444.97
2022-11-28T18:03:27.958Z,101441.84
2022-11-28T18:05:54.665Z,101448.25
2022-11-28T18:08:22.224Z,101450.69
2022-11-28T18:10:49.187Z,101451.69
2022-11-28T18:13:17.396Z,101450.88
2022-11-28T18:15:47.023Z,101451.81
2022-11-28T18:18:14.068Z,101451.31
2022-11-28T18:20:40.661Z,101453.13
2022-11-28T18:23:07.559Z,101456.72
2022-11-28T18:25:35.317Z,101454.59
2022-11-28T18:28:01.884Z,101460.94
2022-11-28T18:30:29.368Z,101464.88
2022-11-28T18:32:56.745Z,101463.53
2022-11-28T18:35:23.281Z,101468.91
2022-11-28T18:37:49.814Z,101460.41
2022-11-28T18:40:16.477Z,101462.66
2022-11-28T18:42:43.171Z,101457.72
2022-11-28T18:45:11.768Z,101467.72
2022-11-28T18:47:38.610Z,101467.19
2022-11-28T18:50:06.009Z,101466.50
2022-11-28T18:52:32.484Z,101472.06
2022-11-28T18:54:59.061Z,101474.03
2022-11-28T18:57:31.117Z,101488.25
2022-11-28T18:59:58.373Z,101478.75
2022-11-28T19:02:25.241Z,101486.75
2022-11-28T19:04:51.924Z,101488.56
2022-11-28T19:07:18.524Z,101493.97
2022-11-28T19:09:45.478Z,101481.00
2022-11-28T19:12:12.571Z,101488.03
2022-11-28T19:14:39.189Z,101489.16
2022-11-28T19:17:08.262Z,101495.25
2022-11-28T19:19:37.554Z,101494.25
2022-11-28T19:22:04.181Z,101494.41
2022-11-28T19:24:30.844Z,101506.56
2022-11-28T19:26:57.700Z,101486.91
2022-11-28T19:29:24.469Z,101498.91
2022-11-28T19:31:51.176Z,101503.00
2022-11-28T19:34:19.042Z,101507.13
2022-11-28T19:36:48.817Z,101498.97
2022-11-28T19:39:22.195Z,101502.25
2022-11-28T19:41:49.918Z,101501.13
2022-11-28T19:44:16.825Z,101505.25
2022-11-28T19:46:43.988Z,101509.34
2022-11-28T19:49:20.077Z,101508.22
2022-11-28T19:51:47.941Z,101507.22
2022-11-28T19:54:15.756Z,101505.44
2022-11-28T19:56:42.478Z,101510.53
2022-11-28T19:59:10.725Z,101512.88
2022-11-28T20:01:39.157Z,101516.13
2022-11-28T20:04:06.002Z,101516.81
2022-11-28T20:06:33.515Z,101518.31
2022-11-28T20:09:04.273Z,101524.22
2022-11-28T20:11:33.550Z,101531.09
2022-11-28T20:14:10.132Z,101533.72
2022-11-28T20:16:38.512Z,101531.78
2022-11-28T20:19:05.963Z,101542.13
2022-11-28T20:21:32.743Z,101529.97
2022-11-28T20:24:07.356Z,101535.22
2022-11-28T20:26:39.575Z,101527.34
2022-11-28T20:29:07.278Z,101529.00
2022-11-28T20:31:42.409Z,101535.41
2022-11-28T20:34:09.152Z,101537.16
2022-11-28T20:36:36.463Z,101538.97
2022-11-28T20:39:05.053Z,101542.41
2022-11-28T20:41:32.025Z,101542.41
2022-11-28T20:44:01.545Z,101552.09
2022-11-28T20:46:31.212Z,101552.78
2022-11-28T20:49:00.224Z,101554.59
2022-11-28T20:51:28.771Z,101552.78
2022-11-28T20:53:57.466Z,101549.34
2022-11-28T20:56:26.376Z,101557.34
2022-11-28T20:58:52.882Z,101559.31
2022-11-28T21:01:24.724Z,101557.66
2022-11-28T21:03:52.638Z,101563.75
2022-11-28T21:06:19.789Z,101558.63
2022-11-28T21:08:47.042Z,101571.75
2022-11-28T21:11:37.017Z,101567.47
2022-11-28T21:14:06.743Z,101566.78
2022-11-28T21:16:34.618Z,101570.28
2022-11-28T21:19:09.387Z,101568.47
2022-11-28T21:21:38.443Z,101576.34
2022-11-28T21:24:11.078Z,101570.09
2022-11-28T21:26:43.227Z,101574.53
2022-11-28T21:29:13.637Z,101572.72
2022-11-28T21:31:42.618Z,101583.06
2022-11-28T21:34:21.156Z,101592.72
2022-11-28T21:36:47.785Z,101596.34
2022-11-28T21:39:17.514Z,101597.31
2022-11-28T21:41:44.455Z,101591.25
2022-11-28T21:44:11.401Z,101593.03
2022-11-28T21:46:38.117Z,101599.13
2022-11-28T21:49:04.866Z,101593.88
2022-11-28T21:51:31.353Z,101595.53
2022-11-28T21:53:58.563Z,101586.81
2022-11-28T21:56:29.272Z,101589.28
2022-11-28T21:58:56.255Z,101593.72
2022-11-28T22:01:22.811Z,101592.72
2022-11-28T22:03:49.812Z,101597.03
2022-11-28T22:06:26.477Z,101597.03
2022-11-28T22:09:09.190Z,101597.69
2022-11-28T22:11:36.489Z,101593.41
2022-11-28T22:14:03.038Z,101597.03
2022-11-28T22:16:29.978Z,101609.47
2022-11-28T22:18:59.251Z,101611.91
2022-11-28T22:21:51.049Z,101608.47
2022-11-28T22:24:12.893Z,101612.06
2022-11-28T22:26:39.347Z,101616.34
2022-11-28T22:29:05.960Z,101609.47
2022-11-28T22:31:32.970Z,101608.47
2022-11-28T22:33:59.845Z,101606.66
2022-11-28T22:36:26.510Z,101614.41
2022-11-28T22:38:57.927Z,101614.53
2022-11-28T22:41:28.816Z,101618.84
2022-11-28T22:44:00.729Z,101615.38
2022-11-28T22:46:27.963Z,101621.59
2022-11-28T22:48:54.578Z,101621.59
2022-11-28T22:51:23.701Z,101625.88
2022-11-28T22:53:55.383Z,101632.91
2022-11-28T22:56:22.232Z,101628.50
2022-11-28T22:58:50.089Z,101632.78
2022-11-28T23:01:34.901Z,101633.59
2022-11-28T23:04:01.817Z,101630.97
2022-11-28T23:06:32.033Z,101641.28
2022-11-28T23:09:00.359Z,101633.44
2022-11-28T23:11:29.455Z,101629.97
2022-11-28T23:13:56.252Z,101635.22
2022-11-28T23:16:26.460Z,101629.00
2022-11-28T23:18:55.991Z,101632.59
2022-11-28T23:21:24.908Z,101635.09
2022-11-28T23:23:52.220Z,101628.19
2022-11-28T23:26:22.276Z,101645.59
2022-11-28T23:28:50.055Z,101634.25
2022-11-28T23:31:22.544Z,101637.72
2022-11-28T23:33:49.582Z,101635.09
2022-11-28T23:36:17.602Z,101634.41
2022-11-28T23:38:45.567Z,101641.28
2022-11-28T23:41:12.638Z,101641.28
2022-11-28T23:43:39.254Z,101642.13
2022-11-28T23:46:06.875Z,101637.72
2022-11-28T23:48:34.324Z,101652.47
2022-11-28T23:51:00.866Z,101638.53
2022-11-28T23:53:27.552Z,101643.78
2022-11-28T23:55:54.065Z,101640.34
2022-11-28T23:58:20.710Z,101649.84
